Cincinnati, Ohio
Traffic Map
Current Weather Conditions
Cincinnati, Ohio
Clear
Clear
-4°
Feels Like: -4°
Wind Chill: -4° Ceiling: Unl
Heat Index: -4° Visibility: 10mi
Dew Point: -4° Wind: 0mph
Humidity: 100% Direction: ° ()
Pressure: 30.39in Gusts: 0mph
Raw Report DataKLUK 160953Z AUTO 00000KT 10SM CLR M04/M04 A3039 RMK AO2 SLP297 T10441044
Traffic Incident Summary
Active as of:
Severity:
Category:
InformationThere was an issue retrieving the traffic information for this location. Please try a different location or try again shortly.
Advertisements
At Last! Intellicast now available for iPhone and Android